^^
Grace C. Lehan Memorial Weather Station Historical Data
Daily Summary for February 5, 2021 Units:  Metric    English   Both
Daily Weekly Monthly Yearly
  High: Low: Average:
Temperature: 22.3 °C 16.1 °C 18.2 °C
Dew Point: 19.8 °C 15.1 °C 16.8 °C
Humidity: 96% 84% 91%
Wind Speed: 0km/h 0km/h 0km/h
Wind Gust: 1.6km/h - -
Wind- -
Pressure: 1012.8 hPa 1009.4 hPa -
Precipitation: 0 mm    
 
 
Tabular Data for February 5, 2021
Time Temperature Dew Point Pressure Wind Wind Speed Wind Gust Humidity Rainfall Rate (Hourly) solar
00:00 17.3 °C 15.4 °C 1012.4 hPa Calm     89% 0 mm 0 W/m2
00:09 17.2 °C 15.3 °C 1012.8 hPa Calm     89% 0 mm 0 W/m2
00:14 17.2 °C 15.3 °C 1012.8 hPa Calm     89.1% 0 mm 0 W/m2
00:19 17.1 °C 15.4 °C 1012.8 hPa Calm     90% 0 mm 0 W/m2
00:24 17 °C 15.3 °C 1012.8 hPa Calm     90% 0 mm 0 W/m2
00:29 16.9 °C 15.3 °C 1012.8 hPa Calm     90% 0 mm 0 W/m2
00:34 16.9 °C 15.2 °C 1012.8 hPa Calm     90% 0 mm 0 W/m2
00:39 16.8 °C 15.3 °C 1012.8 hPa Calm     90.7% 0 mm 0 W/m2
00:44 16.8 °C 15.3 °C 1012.8 hPa Calm     91% 0 mm 0 W/m2
00:49 16.8 °C 15.3 °C 1012.8 hPa Calm     91% 0 mm 0 W/m2
00:54 16.7 °C 15.3 °C 1012.8 hPa Calm     91% 0 mm 0 W/m2
00:59 16.7 °C 15.2 °C 1012.4 hPa Calm     91% 0 mm 0 W/m2
01:04 16.7 °C 15.2 °C 1012.4 hPa Calm     91% 0 mm 0 W/m2
01:09 16.7 °C 15.3 °C 1012.4 hPa Calm     91.8% 0 mm 0 W/m2
01:14 16.7 °C 15.3 °C 1012.4 hPa Calm     92% 0 mm 0 W/m2
01:19 16.6 °C 15.3 °C 1012.1 hPa Calm     92% 0 mm 0 W/m2
01:24 16.6 °C 15.3 °C 1012.4 hPa Calm     92% 0 mm 0 W/m2
01:29 16.7 °C 15.3 °C 1012.4 hPa Calm     92% 0 mm 0 W/m2
01:34 16.7 °C 15.3 °C 1012.4 hPa Calm     92% 0 mm 0 W/m2
01:39 16.7 °C 15.3 °C 1012.4 hPa Calm     92% 0 mm 0 W/m2
01:44 16.7 °C 15.3 °C 1012.1 hPa Calm     92% 0 mm 0 W/m2
01:49 16.7 °C 15.4 °C 1012.1 hPa Calm     92% 0 mm 0 W/m2
01:54 16.7 °C 15.3 °C 1011.7 hPa Calm     92% 0 mm 0 W/m2
01:59 16.6 °C 15.3 °C 1011.7 hPa Calm     92% 0 mm 0 W/m2
02:04 16.6 °C 15.3 °C 1011.7 hPa Calm     92% 0 mm 0 W/m2
02:09 16.6 °C 15.3 °C 1011.7 hPa Calm     92% 0 mm 0 W/m2
02:14 16.6 °C 15.3 °C 1011.7 hPa Calm     92% 0 mm 0 W/m2
02:19 16.6 °C 15.2 °C 1011.7 hPa Calm     92% 0 mm 0 W/m2
02:24 16.5 °C 15.2 °C 1011.7 hPa Calm     92% 0 mm 0 W/m2
02:29 16.5 °C 15.2 °C 1011.7 hPa Calm     92% 0 mm 0 W/m2
02:34 16.4 °C 15.1 °C 1011.7 hPa Calm     92% 0 mm 0 W/m2
02:39 16.4 °C 15.1 °C 1011.7 hPa Calm     92% 0 mm 0 W/m2
02:44 16.3 °C 15.1 °C 1011.7 hPa Calm     92% 0 mm 0 W/m2
02:49 16.3 °C 15.1 °C 1011.4 hPa Calm     92.3% 0 mm 0 W/m2
02:54 16.3 °C 15.2 °C 1011.4 hPa Calm     93% 0 mm 0 W/m2
02:59 16.3 °C 15.2 °C 1011.4 hPa Calm     93% 0 mm 0 W/m2
03:04 16.3 °C 15.2 °C 1011.4 hPa Calm     93% 0 mm 0 W/m2
03:09 16.3 °C 15.2 °C 1011.1 hPa Calm     93% 0 mm 0 W/m2
03:14 16.3 °C 15.2 °C 1011.1 hPa Calm     93% 0 mm 0 W/m2
03:19 16.3 °C 15.2 °C 1011.1 hPa Calm     93% 0 mm 0 W/m2
03:24 16.3 °C 15.2 °C 1011.1 hPa Calm     93% 0 mm 0 W/m2
03:29 16.3 °C 15.2 °C 1011.4 hPa Calm     93% 0 mm 0 W/m2
03:34 16.3 °C 15.1 °C 1011.4 hPa Calm     93% 0 mm 0 W/m2
03:39 16.2 °C 15.1 °C 1011.4 hPa Calm     93% 0 mm 0 W/m2
03:44 16.2 °C 15.1 °C 1011.4 hPa Calm     93% 0 mm 0 W/m2
03:49 16.2 °C 15.1 °C 1011.4 hPa Calm     93% 0 mm 0 W/m2
03:54 16.2 °C 15.1 °C 1011.4 hPa Calm     93% 0 mm 0 W/m2
03:59 16.3 °C 15.2 °C 1011.4 hPa Calm     93.7% 0 mm 0 W/m2
04:00 16.3 °C 15.3 °C 1011.4 hPa Calm     94% 0 mm 0 W/m2
04:09 16.3 °C 15.4 °C 1011.4 hPa Calm     94% 0 mm 0 W/m2
04:14 16.4 °C 15.4 °C 1011.4 hPa Calm     94% 0 mm 0 W/m2
04:19 16.4 °C 15.4 °C 1011.1 hPa Calm     94% 0 mm 0 W/m2
04:24 16.4 °C 15.4 °C 1011.4 hPa Calm     94% 0 mm 0 W/m2
04:29 16.4 °C 15.4 °C 1011.4 hPa Calm     94% 0 mm 0 W/m2
04:34 16.4 °C 15.4 °C 1011.4 hPa Calm     94% 0 mm 0 W/m2
04:39 16.4 °C 15.4 °C 1011.4 hPa Calm     94% 0 mm 0 W/m2
04:44 16.3 °C 15.4 °C 1011.4 hPa Calm     94% 0 mm 0 W/m2
04:49 16.3 °C 15.4 °C 1011.4 hPa Calm     94% 0 mm 0 W/m2
04:54 16.3 °C 15.4 °C 1011.4 hPa Calm     94% 0 mm 0 W/m2
04:59 16.3 °C 15.3 °C 1011.4 hPa Calm     94% 0 mm 0 W/m2
05:04 16.3 °C 15.3 °C 1011.4 hPa Calm     94% 0 mm 0 W/m2
05:09 16.3 °C 15.3 °C 1011.4 hPa Calm     94% 0 mm 0 W/m2
05:14 16.3 °C 15.3 °C 1011.4 hPa Calm     94% 0 mm 0 W/m2
05:19 16.3 °C 15.3 °C 1011.4 hPa Calm     94% 0 mm 0 W/m2
05:21 16.3 °C 15.3 °C 1011.4 hPa Calm     94% 0 mm 0 W/m2
05:30 16.2 °C 15.3 °C 1011.4 hPa Calm     94% 0 mm 0 W/m2
06:00 16.2 °C 15.3 °C 1011.4 hPa Calm     94% 0 mm 0 W/m2
06:30 16.1 °C 15.2 °C 1011.4 hPa Calm     94% 0 mm 0 W/m2
07:00 16.2 °C 15.4 °C 1010.7 hPa Calm     95% 0 mm 10 W/m2
07:30 16.6 °C 15.8 °C 1011.4 hPa Calm     95% 0 mm 33 W/m2
08:04 17.1 °C 16.3 °C 1011.4 hPa Calm     95% 0 mm 33 W/m2
08:09 17.2 °C 16.4 °C 1011.1 hPa Calm     95.5% 0 mm 54 W/m2
08:14 17.3 °C 16.6 °C 1011.1 hPa Calm     96% 0 mm 81 W/m2
08:19 17.4 °C 16.8 °C 1011.1 hPa Calm     96% 0 mm 107 W/m2
08:24 17.6 °C 16.9 °C 1011.1 hPa Calm     96% 0 mm 107 W/m2
08:29 17.7 °C 17 °C 1011.1 hPa Calm     96% 0 mm 95 W/m2
08:34 17.7 °C 17.1 °C 1011.1 hPa Calm     95.6% 0 mm 69 W/m2
08:39 17.8 °C 17 °C 1011.1 hPa Calm     95% 0 mm 72 W/m2
08:44 17.9 °C 17.1 °C 1011.1 hPa Calm     95% 0 mm 69 W/m2
08:49 17.9 °C 17.2 °C 1011.1 hPa Calm     95% 0 mm 62 W/m2
08:54 18.1 °C 17.2 °C 1011.1 hPa Calm     95% 0 mm 104 W/m2
08:59 18.2 °C 17.4 °C 1011.1 hPa Calm     95% 0 mm 120 W/m2
09:04 18.3 °C 17.5 °C 1011.1 hPa Calm     95% 0 mm 114 W/m2
09:09 18.5 °C 17.7 °C 1011.1 hPa Calm     95% 0 mm 100 W/m2
09:14 18.6 °C 17.8 °C 1011.1 hPa Calm     95% 0 mm 104 W/m2
09:19 18.8 °C 17.9 °C 1011.1 hPa Calm     95% 0 mm 98 W/m2
09:24 18.9 °C 17.9 °C 1011.1 hPa Calm     94% 0 mm 102 W/m2
09:29 19 °C 18 °C 1011.1 hPa Calm     94% 0 mm 107 W/m2
09:34 19.1 °C 18.1 °C 1011.4 hPa Calm     93.7% 0 mm 86 W/m2
09:39 19.1 °C 18 °C 1011.1 hPa Calm     93% 0 mm 70 W/m2
09:44 19.2 °C 17.9 °C 1011.1 hPa Calm     92.4% 0 mm 60 W/m2
09:49 19.3 °C 17.9 °C 1011.1 hPa Calm     92% 0 mm 121 W/m2
09:54 19.3 °C 17.8 °C 1011.1 hPa Calm     91.1% 0 mm 132 W/m2
09:59 19.4 °C 18.1 °C 1011.1 hPa Calm     91.7% 0 mm 114 W/m2
10:04 19.6 °C 18.1 °C 1011.1 hPa Calm     91.2% 0 mm 91 W/m2
10:09 19.7 °C 18.2 °C 1011.1 hPa Calm     90.9% 0 mm 95 W/m2
10:14 19.8 °C 18.1 °C 1011.1 hPa Calm     90% 0 mm 95 W/m2
10:19 19.8 °C 18.1 °C 1010.7 hPa Calm     89.6% 0 mm 111 W/m2
10:24 19.8 °C 17.9 °C 1011.1 hPa Calm     89% 0 mm 118 W/m2
10:29 19.9 °C 17.9 °C 1010.7 hPa Calm     88.1% 0 mm 107 W/m2
10:34 20 °C 18 °C 1011.1 hPa Calm     88.1% 0 mm 69 W/m2
10:39 20.1 °C 18 °C 1010.7 hPa Calm   1.6 km/h 88% 0 mm 93 W/m2
10:44 20.2 °C 18.1 °C 1010.7 hPa Calm   1.6 km/h 88% 0 mm 105 W/m2
10:49 20.2 °C 18.2 °C 1010.7 hPa Calm   1.6 km/h 88.1% 0 mm 111 W/m2
10:54 20.3 °C 18.3 °C 1010.7 hPa Calm   1.6 km/h 88.1% 0 mm 109 W/m2
10:59 20.4 °C 18.3 °C 1010.7 hPa Calm   1.6 km/h 88% 0 mm 81 W/m2
11:04 20.4 °C 18.4 °C 1010.7 hPa Calm   1.6 km/h 88% 0 mm 62 W/m2
11:09 20.5 °C 18.4 °C 1010.7 hPa Calm     88% 0 mm 67 W/m2
11:14 20.5 °C 18.4 °C 1010.7 hPa Calm     88% 0 mm 84 W/m2
11:19 20.6 °C 18.7 °C 1010.7 hPa Calm     89% 0 mm 81 W/m2
11:24 20.6 °C 18.8 °C 1010.7 hPa Calm     89% 0 mm 72 W/m2
11:29 20.7 °C 18.7 °C 1010.7 hPa Calm     88.7% 0 mm 74 W/m2
11:34 20.7 °C 18.8 °C 1010.4 hPa Calm     89% 0 mm 88 W/m2
11:39 20.7 °C 18.8 °C 1010.4 hPa Calm     89% 0 mm 114 W/m2
11:44 20.8 °C 19 °C 1010.4 hPa Calm     89.7% 0 mm 148 W/m2
11:49 20.8 °C 19.1 °C 1010 hPa Calm     90% 0 mm 160 W/m2
11:54 20.9 °C 19.3 °C 1010 hPa Calm     90.6% 0 mm 193 W/m2
11:59 21.1 °C 19.6 °C 1010 hPa Calm     91% 0 mm 200 W/m2
12:09 21.3 °C 19.8 °C 1010 hPa Calm     91% 0 mm 118 W/m2
12:14 21.4 °C 19.6 °C 1010 hPa Calm   1.6 km/h 89.5% 0 mm 109 W/m2
12:19 21.4 °C 19.3 °C 1010 hPa Calm   1.6 km/h 88.2% 0 mm 109 W/m2
12:24 21.4 °C 19.2 °C 1010 hPa Calm   1.6 km/h 87.2% 0 mm 118 W/m2
12:29 21.4 °C 19.2 °C 1010 hPa Calm   1.6 km/h 87% 0 mm 134 W/m2
12:34 21.5 °C 19.1 °C 1009.7 hPa Calm   1.6 km/h 86.4% 0 mm 135 W/m2
12:39 21.6 °C 19.2 °C 1010 hPa Calm     86.2% 0 mm 130 W/m2
12:44 21.7 °C 19.2 °C 1009.7 hPa Calm     86% 0 mm 139 W/m2
12:49 21.8 °C 19.3 °C 1009.7 hPa Calm     86% 0 mm 155 W/m2
12:54 21.8 °C 19.4 °C 1009.7 hPa Calm     86% 0 mm 160 W/m2
12:59 21.9 °C 19.4 °C 1009.7 hPa Calm     85.8% 0 mm 160 W/m2
13:04 22 °C 19.4 °C 1009.7 hPa Calm   1.6 km/h 85.3% 0 mm 134 W/m2
13:09 22.1 °C 19.4 °C 1009.7 hPa Calm   1.6 km/h 85% 0 mm 107 W/m2
13:14 22.2 °C 19.5 °C 1009.7 hPa Calm   1.6 km/h 85% 0 mm 128 W/m2
13:19 22.2 °C 19.6 °C 1009.7 hPa Calm   1.6 km/h 84.7% 0 mm 128 W/m2
13:24 22.3 °C 19.6 °C 1009.7 hPa Calm   1.6 km/h 84.8% 0 mm 121 W/m2
13:29 22.3 °C 19.5 °C 1009.7 hPa Calm   1.6 km/h 84% 0 mm 107 W/m2
13:33 22.3 °C 19.5 °C 1009.4 hPa Calm   1.6 km/h 84% 0 mm 118 W/m2
Hartford County Weather
Compliments of Weather Underground - 4 mb